Oceanic Power — 3FGX3 — position and weather

sailwx.info

Track history (hours):
 
Tides and Currents Weather Stations Pressure Air Temp Water Temp Dewpoint Dewpoint Depression Visibility Wind Speed Wind Dir Waves Ship Positions

Oceanic Power

Last reported at 2017-Oct-06 18:38 UTC. Time now 2017-Oct-18 22:41 UTC.
Position N 37°16' W 135°59'.
Warning: this ship's position is 12 days out of date.

Length 225 m; draft 13.8 m.

Type: Cargo ship. MMSI: 354297000.

Date/timePositionNaut miles runAvg speedWind from/ knotsBaromVisibWave heightAir tempDewpointWater temp
2017-Oct-06 18:38N 37°16' W 135°59'34711.0
2017-Oct-05 11:03N 35°37' W 129°05'110.8
2017-Oct-05 11:00N 35°36' W 129°05'811.3
2017-Oct-05 10:18N 35°33' W 128°56'411.2
2017-Oct-05 09:59N 35°32' W 128°52'511.1
2017-Oct-05 09:29N 35°30' W 128°45'13511.0
2017-Oct-04 21:14N 34°43' W 126°11'310.6
2017-Oct-04 20:58N 34°42' W 126°08'6910.2
2017-Oct-04 14:12N 34°26' W 124°47'310.1
2017-Oct-04 13:56N 34°26' W 124°43'410.1
2017-Oct-04 13:30N 34°26' W 124°38'5 9.9
2017-Oct-04 12:58N 34°26' W 124°32'4 9.7
2017-Oct-04 12:30N 34°26' W 124°26'5 9.6
2017-Oct-04 12:00N 34°26' W 124°20'6 9.5
2017-Oct-04 11:24N 34°26' W 124°13'4 9.6
2017-Oct-04 11:00N 34°26' W 124°09'5 9.5
2017-Oct-04 10:30N 34°26' W 124°03'5 9.7
2017-Oct-04 10:00N 34°26' W 123°57'5 9.5
2017-Oct-04 09:30N 34°26' W 123°51'7 9.6
2017-Oct-04 08:45N 34°26' W 123°42'210.2
2017-Oct-04 08:30N 34°26' W 123°40'7 9.9
2017-Oct-04 07:47N 34°26' W 123°31'3 9.9
2017-Oct-04 07:30N 34°26' W 123°28'5 9.9
2017-Oct-04 06:58N 34°26' W 123°21'510.0
2017-Oct-04 06:30N 34°26' W 123°16'5 9.7
2017-Oct-04 06:00N 34°26' W 123°10'5 9.8
2017-Oct-04 05:30N 34°26' W 123°04'5 9.9
2017-Oct-04 05:00N 34°26' W 122°58'5 9.6
2017-Oct-04 04:30N 34°26' W 122°52'5 9.8
2017-Oct-04 04:00N 34°26' W 122°46'5 9.8
2017-Oct-04 03:30N 34°26' W 122°40'5 9.6
2017-Oct-04 03:00N 34°26' W 122°34'5 9.3
2017-Oct-04 02:29N 34°27' W 122°28'25 8.9
2017-Oct-03 23:39N 34°26' W 121°58'1 8.4
2017-Oct-03 23:30N 34°26' W 121°56'4 8.3
2017-Oct-03 23:00N 34°26' W 121°51'5 9.1
2017-Oct-03 22:30N 34°26' W 121°46'4 8.6
2017-Oct-03 22:00N 34°26' W 121°41'4 8.4
2017-Oct-03 21:30N 34°26' W 121°36'4 8.2
2017-Oct-03 21:00N 34°26' W 121°31'4 7.8
2017-Oct-03 20:30N 34°26' W 121°26'4 8.2
2017-Oct-03 20:00N 34°26' W 121°21'4 8.8
2017-Oct-03 19:30N 34°26' W 121°16'12 9.0
2017-Oct-03 18:08N 34°26' W 121°00'1 9.3
2017-Oct-03 18:00N 34°26' W 120°59'5 9.0
2017-Oct-03 17:30N 34°26' W 120°54'4 9.0
2017-Oct-03 17:00N 34°26' W 120°48'5 9.3
2017-Oct-03 16:29N 34°24' W 120°43'5 9.7
2017-Oct-03 16:00N 34°23' W 120°37'6 9.7
2017-Oct-03 15:24N 34°21' W 120°30'410.2
2017-Oct-03 14:59N 34°20' W 120°25'1110.4
2017-Oct-03 13:57N 34°17' W 120°13'510.4
2017-Oct-03 13:29N 34°16' W 120°07'510.2
2017-Oct-03 13:00N 34°15' W 120°01'7 9.7
2017-Oct-03 12:19N 34°13' W 119°54'4 9.8
2017-Oct-03 11:51N 34°12' W 119°48'410.1
2017-Oct-03 11:29N 34°11' W 119°44'510.3
2017-Oct-03 10:57N 34°09' W 119°38'510.5
2017-Oct-03 10:28N 34°08' W 119°32'510.4
2017-Oct-03 09:59N 34°07' W 119°26'610.7
2017-Oct-03 09:27N 34°05' W 119°19'510.5
2017-Oct-03 09:00N 34°04' W 119°14'510.7
2017-Oct-03 08:30N 34°01' W 119°08'510.7
2017-Oct-03 08:00N 33°58' W 119°03'510.7
2017-Oct-03 07:30N 33°56' W 118°57'510.4
2017-Oct-03 07:00N 33°53' W 118°52'510.5
2017-Oct-03 06:30N 33°50' W 118°46'510.5
2017-Oct-03 06:01N 33°48' W 118°41'510.3
2017-Oct-03 05:30N 33°45' W 118°35'510.7
2017-Oct-03 05:00N 33°43' W 118°30'510.9
2017-Oct-03 04:30N 33°40' W 118°24'510.4
2017-Oct-03 04:00N 33°38' W 118°18'5 9.9
2017-Oct-03 03:30N 33°38' W 118°12'5 9.6
2017-Oct-03 03:00N 33°43' W 118°11'2 4.0
2017-Oct-03 02:30N 33°45' W 118°12'0 0.1
2017-Oct-02 20:30N 33°45' W 118°12'0 0.0
2017-Oct-02 19:30N 33°45' W 118°12'0 0.0
2017-Oct-02 18:54N 33°45' W 118°12'0 0.0
2017-Oct-02 18:24N 33°45' W 118°12'0 0.0
2017-Oct-02 18:00N 33°45' W 118°12'0 0.0
2017-Oct-02 17:30N 33°45' W 118°12'0 0.0
2017-Oct-02 16:48N 33°45' W 118°12'0 0.0
2017-Oct-02 16:30N 33°45' W 118°12'0 0.0
2017-Oct-02 16:00N 33°45' W 118°12'0 0.0
2017-Oct-01 23:51N 33°45' W 118°12'0 0.0
2017-Oct-01 22:27N 33°45' W 118°12'0 0.0
2017-Oct-01 18:15N 33°45' W 118°12'0 0.0
2017-Oct-01 17:51N 33°45' W 118°12'0 0.0
2017-Oct-01 16:39N 33°45' W 118°12'0 0.0
2017-Oct-01 16:21N 33°45' W 118°12'0 0.0
2017-Oct-01 15:51N 33°45' W 118°12'0 0.0
2017-Oct-01 15:24N 33°45' W 118°12'0 0.0
2017-Oct-01 15:00N 33°45' W 118°12'0 0.1
2017-Oct-01 12:56N 33°45' W 118°12'0 0.0
2017-Oct-01 11:50N 33°45' W 118°12'0 0.0
2017-Oct-01 11:26N 33°45' W 118°12'0 0.0
2017-Oct-01 10:59N 33°45' W 118°12'0 0.0
2017-Oct-01 10:20N 33°45' W 118°12'0 0.0
2017-Oct-01 09:56N 33°45' W 118°12'0 0.0
2017-Oct-01 09:08N 33°45' W 118°12'0 0.0
2017-Oct-01 08:44N 33°45' W 118°12'0 0.0
2017-Oct-01 08:26N 33°45' W 118°12'0 0.0
2017-Oct-01 07:56N 33°45' W 118°12'0 0.0
2017-Oct-01 07:26N 33°45' W 118°12'0 0.0
2017-Oct-01 06:59N 33°45' W 118°12'0 0.0
2017-Oct-01 06:26N 33°45' W 118°12'0 0.0
2017-Oct-01 05:59N 33°45' W 118°12'0 0.0
2017-Oct-01 05:26N 33°45' W 118°12'0 0.0
2017-Oct-01 04:59N 33°45' W 118°12'0 0.0
2017-Oct-01 04:29N 33°45' W 118°12'0 0.0
2017-Oct-01 03:56N 33°45' W 118°12'0 0.0
2017-Oct-01 03:29N 33°45' W 118°12'0 0.0
2017-Oct-01 02:56N 33°45' W 118°12'0 0.0
2017-Sep-30 01:59N 33°45' W 118°12'0 0.0
2017-Sep-30 01:29N 33°45' W 118°12'0 0.0
2017-Sep-30 00:59N 33°45' W 118°12'0 0.0
2017-Sep-30 00:29N 33°45' W 118°12'0 0.0
2017-Sep-29 23:59N 33°45' W 118°12'0 0.0
2017-Sep-29 23:29N 33°45' W 118°12'0 0.0
2017-Sep-29 22:59N 33°45' W 118°12'0 0.0
2017-Sep-29 22:29N 33°45' W 118°12'0 0.0
2017-Sep-29 21:59N 33°45' W 118°12'0 0.0
2017-Sep-29 21:29N 33°45' W 118°12'0 0.0
2017-Sep-29 20:59N 33°45' W 118°12'0 0.0
2017-Sep-29 20:26N 33°45' W 118°12'0 0.0
2017-Sep-29 19:56N 33°45' W 118°12'0 0.0
2017-Sep-29 19:26N 33°45' W 118°12'0 0.0
2017-Sep-29 18:59N 33°45' W 118°12'0 0.0
2017-Sep-29 18:29N 33°45' W 118°12'0 0.0
2017-Sep-29 17:59N 33°45' W 118°12'0 0.0
2017-Sep-29 17:29N 33°45' W 118°12'0 0.0
2017-Sep-29 16:59N 33°45' W 118°12'0 0.0
2017-Sep-29 16:29N 33°45' W 118°12'0 0.0
2017-Sep-29 15:59N 33°45' W 118°12'0 0.0
2017-Sep-29 15:14N 33°45' W 118°12'0 0.0
2017-Sep-29 14:56N 33°45' W 118°12'0 0.0
2017-Sep-29 14:26N 33°45' W 118°12'0 0.0
2017-Sep-29 13:59N 33°45' W 118°12'0 0.0
2017-Sep-29 13:29N 33°45' W 118°12'0 0.0
2017-Sep-29 12:59N 33°45' W 118°12'0 0.0
2017-Sep-29 12:29N 33°45' W 118°12'0 0.0
2017-Sep-29 11:59N 33°45' W 118°12'0 0.0
2017-Sep-29 11:29N 33°45' W 118°12'0 0.0
2017-Sep-29 10:59N 33°45' W 118°12'0 0.0
2017-Sep-29 10:29N 33°45' W 118°12'0 0.0
2017-Sep-29 09:59N 33°45' W 118°12'0 0.0
2017-Sep-29 09:29N 33°45' W 118°12'0 0.0
2017-Sep-29 08:59N 33°45' W 118°12'0 0.0
2017-Sep-29 08:29N 33°45' W 118°12'0 0.0
2017-Sep-29 07:59N 33°45' W 118°12'0 0.0
2017-Sep-29 07:29N 33°45' W 118°12'0 0.0
2017-Sep-29 06:59N 33°45' W 118°12'0 0.0
2017-Sep-29 06:29N 33°45' W 118°12'0 0.0
2017-Sep-29 05:59N 33°45' W 118°12'0 0.0
2017-Sep-29 05:26N 33°45' W 118°12'0 0.0
2017-Sep-29 04:56N 33°45' W 118°12'0 0.0
2017-Sep-29 04:29N 33°45' W 118°12'0 0.0
2017-Sep-29 03:59N 33°45' W 118°12'0 0.0
2017-Sep-29 03:29N 33°45' W 118°12'0 0.0
2017-Sep-29 02:47N 33°45' W 118°12'0 0.0
2017-Sep-29 02:29N 33°45' W 118°12'0 0.0
2017-Sep-29 01:59N 33°45' W 118°12'0 0.0
2017-Sep-29 01:26N 33°45' W 118°12'0 0.0
2017-Sep-29 00:59N 33°45' W 118°12'0 0.0
2017-Sep-29 00:29N 33°45' W 118°12'0 0.0
2017-Sep-28 23:59N 33°45' W 118°12'0 0.0
2017-Sep-28 23:29N 33°45' W 118°12'0 0.0
2017-Sep-28 22:59N 33°45' W 118°12'0 0.0
2017-Sep-28 22:29N 33°45' W 118°12'0 0.0
2017-Sep-28 21:59N 33°45' W 118°12'0 0.0
2017-Sep-28 21:29N 33°45' W 118°12'0 0.0
2017-Sep-28 20:59N 33°45' W 118°12'0 0.0
2017-Sep-28 20:29N 33°45' W 118°12'0 0.0
2017-Sep-28 19:56N 33°45' W 118°12'0 0.0
2017-Sep-28 19:20N 33°45' W 118°12'0 0.0
2017-Sep-28 19:00N 33°45' W 118°12'1 2.0
2017-Sep-28 18:30N 33°44' W 118°12'3 6.4
2017-Sep-28 18:00N 33°42' W 118°09'0 0.2
2017-Sep-28 17:29N 33°42' W 118°09'0 0.0
2017-Sep-28 16:59N 33°42' W 118°09'0 0.0
2017-Sep-28 16:29N 33°42' W 118°09'0 0.0
2017-Sep-28 15:59N 33°42' W 118°09'0 0.1
2017-Sep-28 15:29N 33°42' W 118°09'0 0.1
2017-Sep-28 14:59N 33°42' W 118°09'0 0.0
2017-Sep-28 14:29N 33°42' W 118°09'0 0.1
2017-Sep-28 13:59N 33°42' W 118°09'0 0.0
2017-Sep-28 13:29N 33°42' W 118°09'0 0.1
2017-Sep-28 12:59N 33°42' W 118°09'0 0.1
2017-Sep-28 12:29N 33°42' W 118°09'0 0.0
2017-Sep-28 11:59N 33°42' W 118°09'0 0.0
2017-Sep-28 11:29N 33°42' W 118°09'0 0.0
2017-Sep-28 10:59N 33°42' W 118°09'0 0.0
2017-Sep-28 10:29N 33°42' W 118°09'0 0.0
2017-Sep-28 09:59N 33°42' W 118°09'0 0.0
2017-Sep-28 09:29N 33°42' W 118°09'0 0.0
2017-Sep-28 08:59N 33°42' W 118°09'0 0.0
2017-Sep-28 08:29N 33°42' W 118°09'0 0.0
2017-Sep-28 07:59N 33°42' W 118°09'0 0.1
2017-Sep-28 07:29N 33°42' W 118°09'0 0.0
2017-Sep-28 06:59N 33°42' W 118°09'0 0.0
2017-Sep-28 06:29N 33°42' W 118°09'0 0.0
2017-Sep-28 05:59N 33°42' W 118°09'0 0.0
2017-Sep-28 05:29N 33°42' W 118°09'0 0.0
2017-Sep-28 04:59N 33°42' W 118°09'0 0.1
2017-Sep-28 04:29N 33°42' W 118°09'0 0.0
2017-Sep-28 03:59N 33°42' W 118°09'0 0.0
2017-Sep-28 03:29N 33°42' W 118°09'0 0.1
2017-Sep-28 02:59N 33°42' W 118°09'0 0.0
2017-Sep-28 02:29N 33°42' W 118°09'0 0.0
2017-Sep-28 01:59N 33°42' W 118°09'0 0.0
2017-Sep-28 01:29N 33°42' W 118°09'0 0.0
2017-Sep-28 00:59N 33°42' W 118°09'0 0.0
2017-Sep-28 00:29N 33°42' W 118°09'0 0.0
2017-Sep-27 23:59N 33°42' W 118°09'0 0.0
2017-Sep-27 23:29N 33°42' W 118°09'0 0.0
2017-Sep-27 22:59N 33°42' W 118°09'0 0.0
2017-Sep-27 22:29N 33°42' W 118°09'0 0.0
2017-Sep-27 21:59N 33°42' W 118°09'0 0.0
2017-Sep-27 21:29N 33°42' W 118°09'0 0.0
2017-Sep-27 20:59N 33°42' W 118°09'0 0.1
2017-Sep-27 20:26N 33°42' W 118°09'0 0.0
2017-Sep-27 19:59N 33°42' W 118°09'0 0.1
2017-Sep-27 19:29N 33°42' W 118°09'0 0.1
2017-Sep-27 18:59N 33°42' W 118°09'0 0.0
2017-Sep-27 18:29N 33°42' W 118°09'0 0.1
2017-Sep-27 17:59N 33°42' W 118°09'0 0.0
2017-Sep-27 17:29N 33°42' W 118°09'0 0.0
2017-Sep-27 16:59N 33°42' W 118°09'0 0.0
2017-Sep-27 16:29N 33°42' W 118°09'0 0.0
2017-Sep-27 15:59N 33°42' W 118°09'0 0.0
2017-Sep-27 15:29N 33°42' W 118°09'0 0.0
2017-Sep-27 14:56N 33°42' W 118°09'0 0.0
2017-Sep-27 14:29N 33°42' W 118°09'0 0.0
2017-Sep-27 13:59N 33°42' W 118°09'0 0.0
2017-Sep-27 13:29N 33°42' W 118°09'0 0.0
2017-Sep-27 12:59N 33°42' W 118°09'0 0.0
2017-Sep-27 12:29N 33°42' W 118°09'0 0.0
2017-Sep-27 11:56N 33°42' W 118°09'0 0.0
2017-Sep-27 11:29N 33°42' W 118°09'0 0.0
2017-Sep-27 10:59N 33°42' W 118°09'0 0.1
2017-Sep-27 10:29N 33°42' W 118°09'0 0.1
2017-Sep-27 09:59N 33°42' W 118°09'0 0.0
2017-Sep-27 09:29N 33°42' W 118°09'0 0.0
2017-Sep-27 08:59N 33°42' W 118°09'0 0.0
2017-Sep-27 08:29N 33°42' W 118°09'0 0.1
2017-Sep-27 07:59N 33°42' W 118°09'0 0.0
2017-Sep-27 07:29N 33°42' W 118°09'0 0.0
2017-Sep-27 06:59N 33°42' W 118°09'0 0.0
2017-Sep-27 06:29N 33°42' W 118°09'0 0.1
2017-Sep-27 05:59N 33°42' W 118°09'0 0.0
2017-Sep-27 05:29N 33°42' W 118°09'0 0.1
2017-Sep-27 04:59N 33°42' W 118°09'0 0.1
2017-Sep-27 04:29N 33°42' W 118°09'0 0.0
2017-Sep-27 03:59N 33°42' W 118°09'0 0.0
2017-Sep-27 03:29N 33°42' W 118°09'0 0.1
2017-Sep-27 02:56N 33°42' W 118°09'0 0.0
2017-Sep-27 02:29N 33°42' W 118°09'0 0.0
2017-Sep-27 01:59N 33°42' W 118°09'0 0.0
2017-Sep-27 01:29N 33°42' W 118°09'0 0.1
2017-Sep-27 00:59N 33°42' W 118°09'0 0.1
2017-Sep-27 00:29N 33°42' W 118°09'0 0.0
2017-Sep-26 23:59N 33°42' W 118°09'0 0.0
2017-Sep-26 23:26N 33°42' W 118°09'0 0.0
2017-Sep-26 22:59N 33°42' W 118°09'0 0.0
2017-Sep-26 22:29N 33°42' W 118°09'0 0.0
2017-Sep-26 21:59N 33°42' W 118°09'0 0.0
2017-Sep-26 21:29N 33°42' W 118°09'0 0.0
2017-Sep-26 20:59N 33°42' W 118°09'0 0.0
2017-Sep-26 20:29N 33°42' W 118°09'0 0.0
2017-Sep-26 19:59N 33°42' W 118°09'0 0.0
2017-Sep-26 19:29N 33°42' W 118°09'0 0.1
2017-Sep-26 18:59N 33°42' W 118°09'  
Track history (hours):
 
Tides and Currents Weather Stations Pressure Air Temp Water Temp Dewpoint Dewpoint Depression Visibility Wind Speed Wind Dir Waves Ship Positions

Oceanic Power

Last reported at 2017-Oct-06 18:38 UTC. Time now 2017-Oct-18 22:41 UTC.
Position N 37°16' W 135°59'.
Warning: this ship's position is 12 days out of date.

Length 225 m; draft 13.8 m.

Type: Cargo ship. MMSI: 354297000.

Date/timePositionNaut miles runAvg speedWind from/ knotsBaromVisibWave heightAir tempDewpointWater temp
2017-Oct-06 18:38N 37°16' W 135°59'34711.0
2017-Oct-05 11:03N 35°37' W 129°05'110.8
2017-Oct-05 11:00N 35°36' W 129°05'811.3
2017-Oct-05 10:18N 35°33' W 128°56'411.2
2017-Oct-05 09:59N 35°32' W 128°52'511.1
2017-Oct-05 09:29N 35°30' W 128°45'13511.0
2017-Oct-04 21:14N 34°43' W 126°11'310.6
2017-Oct-04 20:58N 34°42' W 126°08'6910.2
2017-Oct-04 14:12N 34°26' W 124°47'310.1
2017-Oct-04 13:56N 34°26' W 124°43'410.1
2017-Oct-04 13:30N 34°26' W 124°38'5 9.9
2017-Oct-04 12:58N 34°26' W 124°32'4 9.7
2017-Oct-04 12:30N 34°26' W 124°26'5 9.6
2017-Oct-04 12:00N 34°26' W 124°20'6 9.5
2017-Oct-04 11:24N 34°26' W 124°13'4 9.6
2017-Oct-04 11:00N 34°26' W 124°09'5 9.5
2017-Oct-04 10:30N 34°26' W 124°03'5 9.7
2017-Oct-04 10:00N 34°26' W 123°57'5 9.5
2017-Oct-04 09:30N 34°26' W 123°51'7 9.6
2017-Oct-04 08:45N 34°26' W 123°42'210.2
2017-Oct-04 08:30N 34°26' W 123°40'7 9.9
2017-Oct-04 07:47N 34°26' W 123°31'3 9.9
2017-Oct-04 07:30N 34°26' W 123°28'5 9.9
2017-Oct-04 06:58N 34°26' W 123°21'510.0
2017-Oct-04 06:30N 34°26' W 123°16'5 9.7
2017-Oct-04 06:00N 34°26' W 123°10'5 9.8
2017-Oct-04 05:30N 34°26' W 123°04'5 9.9
2017-Oct-04 05:00N 34°26' W 122°58'5 9.6
2017-Oct-04 04:30N 34°26' W 122°52'5 9.8
2017-Oct-04 04:00N 34°26' W 122°46'5 9.8
2017-Oct-04 03:30N 34°26' W 122°40'5 9.6
2017-Oct-04 03:00N 34°26' W 122°34'5 9.3
2017-Oct-04 02:29N 34°27' W 122°28'25 8.9
2017-Oct-03 23:39N 34°26' W 121°58'1 8.4
2017-Oct-03 23:30N 34°26' W 121°56'4 8.3
2017-Oct-03 23:00N 34°26' W 121°51'5 9.1
2017-Oct-03 22:30N 34°26' W 121°46'4 8.6
2017-Oct-03 22:00N 34°26' W 121°41'4 8.4
2017-Oct-03 21:30N 34°26' W 121°36'4 8.2
2017-Oct-03 21:00N 34°26' W 121°31'4 7.8
2017-Oct-03 20:30N 34°26' W 121°26'4 8.2
2017-Oct-03 20:00N 34°26' W 121°21'4 8.8
2017-Oct-03 19:30N 34°26' W 121°16'12 9.0
2017-Oct-03 18:08N 34°26' W 121°00'1 9.3
2017-Oct-03 18:00N 34°26' W 120°59'5 9.0
2017-Oct-03 17:30N 34°26' W 120°54'4 9.0
2017-Oct-03 17:00N 34°26' W 120°48'5 9.3
2017-Oct-03 16:29N 34°24' W 120°43'5 9.7
2017-Oct-03 16:00N 34°23' W 120°37'6 9.7
2017-Oct-03 15:24N 34°21' W 120°30'410.2
2017-Oct-03 14:59N 34°20' W 120°25'1110.4
2017-Oct-03 13:57N 34°17' W 120°13'510.4
2017-Oct-03 13:29N 34°16' W 120°07'510.2
2017-Oct-03 13:00N 34°15' W 120°01'7 9.7
2017-Oct-03 12:19N 34°13' W 119°54'4 9.8
2017-Oct-03 11:51N 34°12' W 119°48'410.1
2017-Oct-03 11:29N 34°11' W 119°44'510.3
2017-Oct-03 10:57N 34°09' W 119°38'510.5
2017-Oct-03 10:28N 34°08' W 119°32'510.4
2017-Oct-03 09:59N 34°07' W 119°26'610.7
2017-Oct-03 09:27N 34°05' W 119°19'510.5
2017-Oct-03 09:00N 34°04' W 119°14'510.7
2017-Oct-03 08:30N 34°01' W 119°08'510.7
2017-Oct-03 08:00N 33°58' W 119°03'510.7
2017-Oct-03 07:30N 33°56' W 118°57'510.4
2017-Oct-03 07:00N 33°53' W 118°52'510.5
2017-Oct-03 06:30N 33°50' W 118°46'510.5
2017-Oct-03 06:01N 33°48' W 118°41'510.3
2017-Oct-03 05:30N 33°45' W 118°35'510.7
2017-Oct-03 05:00N 33°43' W 118°30'510.9
2017-Oct-03 04:30N 33°40' W 118°24'510.4
2017-Oct-03 04:00N 33°38' W 118°18'5 9.9
2017-Oct-03 03:30N 33°38' W 118°12'5 9.6
2017-Oct-03 03:00N 33°43' W 118°11'2 4.0
2017-Oct-03 02:30N 33°45' W 118°12'0 0.1
2017-Oct-02 20:30N 33°45' W 118°12'0 0.0
2017-Oct-02 19:30N 33°45' W 118°12'0 0.0
2017-Oct-02 18:54N 33°45' W 118°12'0 0.0
2017-Oct-02 18:24N 33°45' W 118°12'0 0.0
2017-Oct-02 18:00N 33°45' W 118°12'0 0.0
2017-Oct-02 17:30N 33°45' W 118°12'0 0.0
2017-Oct-02 16:48N 33°45' W 118°12'0 0.0
2017-Oct-02 16:30N 33°45' W 118°12'0 0.0
2017-Oct-02 16:00N 33°45' W 118°12'0 0.0
2017-Oct-01 23:51N 33°45' W 118°12'0 0.0
2017-Oct-01 22:27N 33°45' W 118°12'0 0.0
2017-Oct-01 18:15N 33°45' W 118°12'0 0.0
2017-Oct-01 17:51N 33°45' W 118°12'0 0.0
2017-Oct-01 16:39N 33°45' W 118°12'0 0.0
2017-Oct-01 16:21N 33°45' W 118°12'0 0.0
2017-Oct-01 15:51N 33°45' W 118°12'0 0.0
2017-Oct-01 15:24N 33°45' W 118°12'0 0.0
2017-Oct-01 15:00N 33°45' W 118°12'0 0.1
2017-Oct-01 12:56N 33°45' W 118°12'0 0.0
2017-Oct-01 11:50N 33°45' W 118°12'0 0.0
2017-Oct-01 11:26N 33°45' W 118°12'0 0.0
2017-Oct-01 10:59N 33°45' W 118°12'0 0.0
2017-Oct-01 10:20N 33°45' W 118°12'0 0.0
2017-Oct-01 09:56N 33°45' W 118°12'0 0.0
2017-Oct-01 09:08N 33°45' W 118°12'0 0.0
2017-Oct-01 08:44N 33°45' W 118°12'0 0.0
2017-Oct-01 08:26N 33°45' W 118°12'0 0.0
2017-Oct-01 07:56N 33°45' W 118°12'0 0.0
2017-Oct-01 07:26N 33°45' W 118°12'0 0.0
2017-Oct-01 06:59N 33°45' W 118°12'0 0.0
2017-Oct-01 06:26N 33°45' W 118°12'0 0.0
2017-Oct-01 05:59N 33°45' W 118°12'0 0.0
2017-Oct-01 05:26N 33°45' W 118°12'0 0.0
2017-Oct-01 04:59N 33°45' W 118°12'0 0.0
2017-Oct-01 04:29N 33°45' W 118°12'0 0.0
2017-Oct-01 03:56N 33°45' W 118°12'0 0.0
2017-Oct-01 03:29N 33°45' W 118°12'0 0.0
2017-Oct-01 02:56N 33°45' W 118°12'0 0.0
2017-Sep-30 01:59N 33°45' W 118°12'0 0.0
2017-Sep-30 01:29N 33°45' W 118°12'0 0.0
2017-Sep-30 00:59N 33°45' W 118°12'0 0.0
2017-Sep-30 00:29N 33°45' W 118°12'0 0.0
2017-Sep-29 23:59N 33°45' W 118°12'0 0.0
2017-Sep-29 23:29N 33°45' W 118°12'0 0.0
2017-Sep-29 22:59N 33°45' W 118°12'0 0.0
2017-Sep-29 22:29N 33°45' W 118°12'0 0.0
2017-Sep-29 21:59N 33°45' W 118°12'0 0.0
2017-Sep-29 21:29N 33°45' W 118°12'0 0.0
2017-Sep-29 20:59N 33°45' W 118°12'0 0.0
2017-Sep-29 20:26N 33°45' W 118°12'0 0.0
2017-Sep-29 19:56N 33°45' W 118°12'0 0.0
2017-Sep-29 19:26N 33°45' W 118°12'0 0.0
2017-Sep-29 18:59N 33°45' W 118°12'0 0.0
2017-Sep-29 18:29N 33°45' W 118°12'0 0.0
2017-Sep-29 17:59N 33°45' W 118°12'0 0.0
2017-Sep-29 17:29N 33°45' W 118°12'0 0.0
2017-Sep-29 16:59N 33°45' W 118°12'0 0.0
2017-Sep-29 16:29N 33°45' W 118°12'0 0.0
2017-Sep-29 15:59N 33°45' W 118°12'0 0.0
2017-Sep-29 15:14N 33°45' W 118°12'0 0.0
2017-Sep-29 14:56N 33°45' W 118°12'0 0.0
2017-Sep-29 14:26N 33°45' W 118°12'0 0.0
2017-Sep-29 13:59N 33°45' W 118°12'0 0.0
2017-Sep-29 13:29N 33°45' W 118°12'0 0.0
2017-Sep-29 12:59N 33°45' W 118°12'0 0.0
2017-Sep-29 12:29N 33°45' W 118°12'0 0.0
2017-Sep-29 11:59N 33°45' W 118°12'0 0.0
2017-Sep-29 11:29N 33°45' W 118°12'0 0.0
2017-Sep-29 10:59N 33°45' W 118°12'0 0.0
2017-Sep-29 10:29N 33°45' W 118°12'0 0.0
2017-Sep-29 09:59N 33°45' W 118°12'0 0.0
2017-Sep-29 09:29N 33°45' W 118°12'0 0.0
2017-Sep-29 08:59N 33°45' W 118°12'0 0.0
2017-Sep-29 08:29N 33°45' W 118°12'0 0.0
2017-Sep-29 07:59N 33°45' W 118°12'0 0.0
2017-Sep-29 07:29N 33°45' W 118°12'0 0.0
2017-Sep-29 06:59N 33°45' W 118°12'0 0.0
2017-Sep-29 06:29N 33°45' W 118°12'0 0.0
2017-Sep-29 05:59N 33°45' W 118°12'0 0.0
2017-Sep-29 05:26N 33°45' W 118°12'0 0.0
2017-Sep-29 04:56N 33°45' W 118°12'0 0.0
2017-Sep-29 04:29N 33°45' W 118°12'0 0.0
2017-Sep-29 03:59N 33°45' W 118°12'0 0.0
2017-Sep-29 03:29N 33°45' W 118°12'0 0.0
2017-Sep-29 02:47N 33°45' W 118°12'0 0.0
2017-Sep-29 02:29N 33°45' W 118°12'0 0.0
2017-Sep-29 01:59N 33°45' W 118°12'0 0.0
2017-Sep-29 01:26N 33°45' W 118°12'0 0.0
2017-Sep-29 00:59N 33°45' W 118°12'0 0.0
2017-Sep-29 00:29N 33°45' W 118°12'0 0.0
2017-Sep-28 23:59N 33°45' W 118°12'0 0.0
2017-Sep-28 23:29N 33°45' W 118°12'0 0.0
2017-Sep-28 22:59N 33°45' W 118°12'0 0.0
2017-Sep-28 22:29N 33°45' W 118°12'0 0.0
2017-Sep-28 21:59N 33°45' W 118°12'0 0.0
2017-Sep-28 21:29N 33°45' W 118°12'0 0.0
2017-Sep-28 20:59N 33°45' W 118°12'0 0.0
2017-Sep-28 20:29N 33°45' W 118°12'0 0.0
2017-Sep-28 19:56N 33°45' W 118°12'0 0.0
2017-Sep-28 19:20N 33°45' W 118°12'0 0.0
2017-Sep-28 19:00N 33°45' W 118°12'1 2.0
2017-Sep-28 18:30N 33°44' W 118°12'3 6.4
2017-Sep-28 18:00N 33°42' W 118°09'0 0.2
2017-Sep-28 17:29N 33°42' W 118°09'0 0.0
2017-Sep-28 16:59N 33°42' W 118°09'0 0.0
2017-Sep-28 16:29N 33°42' W 118°09'0 0.0
2017-Sep-28 15:59N 33°42' W 118°09'0 0.1
2017-Sep-28 15:29N 33°42' W 118°09'0 0.1
2017-Sep-28 14:59N 33°42' W 118°09'0 0.0
2017-Sep-28 14:29N 33°42' W 118°09'0 0.1
2017-Sep-28 13:59N 33°42' W 118°09'0 0.0
2017-Sep-28 13:29N 33°42' W 118°09'0 0.1
2017-Sep-28 12:59N 33°42' W 118°09'0 0.1
2017-Sep-28 12:29N 33°42' W 118°09'0 0.0
2017-Sep-28 11:59N 33°42' W 118°09'0 0.0
2017-Sep-28 11:29N 33°42' W 118°09'0 0.0
2017-Sep-28 10:59N 33°42' W 118°09'0 0.0
2017-Sep-28 10:29N 33°42' W 118°09'0 0.0
2017-Sep-28 09:59N 33°42' W 118°09'0 0.0
2017-Sep-28 09:29N 33°42' W 118°09'0 0.0
2017-Sep-28 08:59N 33°42' W 118°09'0 0.0
2017-Sep-28 08:29N 33°42' W 118°09'0 0.0
2017-Sep-28 07:59N 33°42' W 118°09'0 0.1
2017-Sep-28 07:29N 33°42' W 118°09'0 0.0
2017-Sep-28 06:59N 33°42' W 118°09'0 0.0
2017-Sep-28 06:29N 33°42' W 118°09'0 0.0
2017-Sep-28 05:59N 33°42' W 118°09'0 0.0
2017-Sep-28 05:29N 33°42' W 118°09'0 0.0
2017-Sep-28 04:59N 33°42' W 118°09'0 0.1
2017-Sep-28 04:29N 33°42' W 118°09'0 0.0
2017-Sep-28 03:59N 33°42' W 118°09'0 0.0
2017-Sep-28 03:29N 33°42' W 118°09'0 0.1
2017-Sep-28 02:59N 33°42' W 118°09'0 0.0
2017-Sep-28 02:29N 33°42' W 118°09'0 0.0
2017-Sep-28 01:59N 33°42' W 118°09'0 0.0
2017-Sep-28 01:29N 33°42' W 118°09'0 0.0
2017-Sep-28 00:59N 33°42' W 118°09'0 0.0
2017-Sep-28 00:29N 33°42' W 118°09'0 0.0
2017-Sep-27 23:59N 33°42' W 118°09'0 0.0
2017-Sep-27 23:29N 33°42' W 118°09'0 0.0
2017-Sep-27 22:59N 33°42' W 118°09'0 0.0
2017-Sep-27 22:29N 33°42' W 118°09'0 0.0
2017-Sep-27 21:59N 33°42' W 118°09'0 0.0
2017-Sep-27 21:29N 33°42' W 118°09'0 0.0
2017-Sep-27 20:59N 33°42' W 118°09'0 0.1
2017-Sep-27 20:26N 33°42' W 118°09'0 0.0
2017-Sep-27 19:59N 33°42' W 118°09'0 0.1
2017-Sep-27 19:29N 33°42' W 118°09'0 0.1
2017-Sep-27 18:59N 33°42' W 118°09'0 0.0
2017-Sep-27 18:29N 33°42' W 118°09'0 0.1
2017-Sep-27 17:59N 33°42' W 118°09'0 0.0
2017-Sep-27 17:29N 33°42' W 118°09'0 0.0
2017-Sep-27 16:59N 33°42' W 118°09'0 0.0
2017-Sep-27 16:29N 33°42' W 118°09'0 0.0
2017-Sep-27 15:59N 33°42' W 118°09'0 0.0
2017-Sep-27 15:29N 33°42' W 118°09'0 0.0
2017-Sep-27 14:56N 33°42' W 118°09'0 0.0
2017-Sep-27 14:29N 33°42' W 118°09'0 0.0
2017-Sep-27 13:59N 33°42' W 118°09'0 0.0
2017-Sep-27 13:29N 33°42' W 118°09'0 0.0
2017-Sep-27 12:59N 33°42' W 118°09'0 0.0
2017-Sep-27 12:29N 33°42' W 118°09'0 0.0
2017-Sep-27 11:56N 33°42' W 118°09'0 0.0
2017-Sep-27 11:29N 33°42' W 118°09'0 0.0
2017-Sep-27 10:59N 33°42' W 118°09'0 0.1
2017-Sep-27 10:29N 33°42' W 118°09'0 0.1
2017-Sep-27 09:59N 33°42' W 118°09'0 0.0
2017-Sep-27 09:29N 33°42' W 118°09'0 0.0
2017-Sep-27 08:59N 33°42' W 118°09'0 0.0
2017-Sep-27 08:29N 33°42' W 118°09'0 0.1
2017-Sep-27 07:59N 33°42' W 118°09'0 0.0
2017-Sep-27 07:29N 33°42' W 118°09'0 0.0
2017-Sep-27 06:59N 33°42' W 118°09'0 0.0
2017-Sep-27 06:29N 33°42' W 118°09'0 0.1
2017-Sep-27 05:59N 33°42' W 118°09'0 0.0
2017-Sep-27 05:29N 33°42' W 118°09'0 0.1
2017-Sep-27 04:59N 33°42' W 118°09'0 0.1
2017-Sep-27 04:29N 33°42' W 118°09'0 0.0
2017-Sep-27 03:59N 33°42' W 118°09'0 0.0
2017-Sep-27 03:29N 33°42' W 118°09'0 0.1
2017-Sep-27 02:56N 33°42' W 118°09'0 0.0
2017-Sep-27 02:29N 33°42' W 118°09'0 0.0
2017-Sep-27 01:59N 33°42' W 118°09'0 0.0
2017-Sep-27 01:29N 33°42' W 118°09'0 0.1
2017-Sep-27 00:59N 33°42' W 118°09'0 0.1
2017-Sep-27 00:29N 33°42' W 118°09'0 0.0
2017-Sep-26 23:59N 33°42' W 118°09'0 0.0
2017-Sep-26 23:26N 33°42' W 118°09'0 0.0
2017-Sep-26 22:59N 33°42' W 118°09'0 0.0
2017-Sep-26 22:29N 33°42' W 118°09'0 0.0
2017-Sep-26 21:59N 33°42' W 118°09'0 0.0
2017-Sep-26 21:29N 33°42' W 118°09'0 0.0
2017-Sep-26 20:59N 33°42' W 118°09'0 0.0
2017-Sep-26 20:29N 33°42' W 118°09'0 0.0
2017-Sep-26 19:59N 33°42' W 118°09'0 0.0
2017-Sep-26 19:29N 33°42' W 118°09'0 0.1
2017-Sep-26 18:59N 33°42' W 118°09'  

Dump ship's entire track history